Carlyle, Kansas
Current Conditions -  °F | °C
As of 7:52 AM on Saturday 25 Oct 2014 (Local Time) from KCNU Reporting Station
Moderate Fog Moderate Fog  
Wind Chill: 53°   Ceiling: 100
Heat Index: 53°   Visibility: 0mi
Dew Point: 53°   Wind: 3mph
Humidity: 100%   Direction: 140°SE
Pressure: 30.06"   Gusts: NA
Location:  37.9552°N, 95.4332°W
Report Text: KCNU 251252Z AUTO 14003KT M1/4SM FG VV001 12/12 A3006 RMK AO2 SLP173 T01170117
Loading
Personal Weather Stations






























Interactive Weather Map
Tropical Storm Tracking
New forecast layout! Learn more

10-Day Weather Forecast

Advertisements
Track Severe Weather on mobile